Time;durP1;ratioP1;P1;durP2;ratioP2;P2;SDS_P1;SDS_P2;PMS_P1;PMS_P2;Temp;Humidity;BMP_temperature;BMP_pressure;BME280_temperature;BME280_humidity;BME280_pressure;Samples;Min_cycle;Max_cycle;Signal;HPM_P1;HPM_P2
2022/08/07 00:00:36;;;;;;;7.40;2.72;;;;;;;13.55;100.00;102644.66;5202336;28;20032;-73
2022/08/07 00:03:08;;;;;;;5.40;3.05;;;;;;;13.51;100.00;102646.81;5196972;28;20026;-72
2022/08/07 00:05:38;;;;;;;5.38;3.28;;;;;;;13.45;100.00;102645.53;5199845;28;20060;-72
2022/08/07 00:08:09;;;;;;;6.80;3.20;;;;;;;13.41;100.00;102641.44;5205813;28;20029;-72
2022/08/07 00:10:40;;;;;;;7.25;3.17;;;;;;;13.37;100.00;102641.84;5206294;28;20545;-73
2022/08/07 00:13:11;;;;;;;6.85;3.30;;;;;;;13.33;100.00;102641.25;5205842;28;20014;-72
2022/08/07 00:15:41;;;;;;;5.28;3.17;;;;;;;13.30;100.00;102636.16;5196835;28;20080;-73
2022/08/07 00:18:15;;;;;;;7.32;3.33;;;;;;;13.28;100.00;102638.13;5205400;28;20025;-72
2022/08/07 00:20:48;;;;;;;5.85;3.03;;;;;;;13.26;100.00;102628.50;5205306;28;20026;-74
2022/08/07 00:23:19;;;;;;;5.65;3.55;;;;;;;13.27;100.00;102633.75;5204319;28;20025;-72
2022/08/07 00:25:50;;;;;;;6.60;3.38;;;;;;;13.31;100.00;102637.03;5204919;28;20104;-72
2022/08/07 00:28:21;;;;;;;5.88;3.75;;;;;;;13.31;100.00;102635.19;5205702;28;20481;-72
2022/08/07 00:30:51;;;;;;;4.55;3.50;;;;;;;13.29;100.00;102630.91;5205559;28;20026;-71
2022/08/07 00:33:27;;;;;;;5.93;4.05;;;;;;;13.24;100.00;102633.16;5205307;28;20051;-73
2022/08/07 00:35:57;;;;;;;6.38;4.10;;;;;;;13.18;100.00;102629.16;5204777;28;20037;-72
2022/08/07 00:38:28;;;;;;;7.82;4.45;;;;;;;13.11;100.00;102619.94;5205111;28;20372;-72
2022/08/07 00:40:59;;;;;;;8.35;4.18;;;;;;;13.07;100.00;102618.53;5205026;28;20033;-72
2022/08/07 00:43:30;;;;;;;5.47;3.55;;;;;;;13.01;100.00;102619.94;5205267;28;20688;-71
2022/08/07 00:46:01;;;;;;;6.95;4.25;;;;;;;12.99;100.00;102610.25;5204348;28;20097;-72
2022/08/07 00:48:31;;;;;;;10.07;4.00;;;;;;;12.95;100.00;102617.75;5201843;28;20033;-72
2022/08/07 00:51:02;;;;;;;6.13;4.03;;;;;;;12.92;100.00;102605.44;5193151;28;20068;-71
2022/08/07 00:53:33;;;;;;;7.45;3.88;;;;;;;12.91;100.00;102614.53;5204695;28;20032;-71
2022/08/07 00:56:03;;;;;;;6.88;4.03;;;;;;;12.92;100.00;102610.84;5204720;28;20027;-71
2022/08/07 00:58:34;;;;;;;8.73;4.50;;;;;;;12.92;100.00;102610.84;5204730;28;20029;-72
2022/08/07 01:01:05;;;;;;;7.63;4.07;;;;;;;12.87;100.00;102610.41;5191736;28;20025;-72
2022/08/07 01:03:36;;;;;;;10.95;4.53;;;;;;;12.83;100.00;102608.13;5194693;28;20088;-72
2022/08/07 01:06:07;;;;;;;9.50;4.55;;;;;;;12.80;100.00;102601.19;5203103;28;20105;-72
2022/08/07 01:08:39;;;;;;;9.40;3.85;;;;;;;12.75;100.00;102602.56;5205299;28;20052;-72
2022/08/07 01:11:12;;;;;;;7.75;4.13;;;;;;;12.73;100.00;102602.69;5192055;28;20026;-72
2022/08/07 01:13:42;;;;;;;11.40;4.75;;;;;;;12.72;100.00;102601.00;5204958;28;20033;-73
2022/08/07 01:16:16;;;;;;;6.03;4.20;;;;;;;12.69;100.00;102598.56;5195720;28;20455;-72
2022/08/07 01:18:57;;;;;;;9.57;4.70;;;;;;;12.66;100.00;102605.09;5204734;28;20506;-72
2022/08/07 01:21:35;;;;;;;9.13;4.97;;;;;;;12.61;100.00;102601.97;5204921;28;20423;-73
2022/08/07 01:24:07;;;;;;;12.55;5.30;;;;;;;12.57;100.00;102594.31;5204736;28;20044;-74
2022/08/07 01:26:46;;;;;;;10.18;5.32;;;;;;;12.53;100.00;102593.72;5204601;28;20025;-73
2022/08/07 01:29:17;;;;;;;8.98;4.35;;;;;;;12.50;100.00;102591.31;5204903;28;20100;-73
2022/08/07 01:31:49;;;;;;;8.35;5.22;;;;;;;12.48;100.00;102584.34;5205062;28;20104;-73
2022/08/07 01:34:20;;;;;;;9.50;4.97;;;;;;;12.45;100.00;102585.47;5204325;28;20040;-73
2022/08/07 01:36:51;;;;;;;10.43;5.30;;;;;;;12.40;100.00;102585.03;5204762;28;20549;-73
2022/08/07 01:39:21;;;;;;;9.15;5.30;;;;;;;12.33;100.00;102582.03;5204058;28;20026;-73
2022/08/07 01:41:53;;;;;;;6.85;4.75;;;;;;;12.29;100.00;102587.81;5204346;28;20076;-74
2022/08/07 01:44:24;;;;;;;6.95;5.15;;;;;;;12.24;100.00;102581.97;5189630;28;20116;-73
2022/08/07 01:46:56;;;;;;;7.50;4.70;;;;;;;12.18;100.00;102578.84;5191345;28;20025;-72
2022/08/07 01:49:27;;;;;;;10.45;5.05;;;;;;;12.13;100.00;102569.47;5200942;28;20116;-73
2022/08/07 01:52:06;;;;;;;11.43;5.13;;;;;;;12.07;100.00;102578.94;5194082;28;20080;-73
2022/08/07 01:54:39;;;;;;;;;;;;;;;12.00;100.00;102574.22;5204334;28;20076;-73
2022/08/07 01:57:16;;;;;;;8.18;5.10;;;;;;;11.93;100.00;102579.28;5204623;28;20024;-73
2022/08/07 01:59:53;;;;;;;8.55;5.30;;;;;;;11.86;100.00;102572.75;5202898;28;20175;-73
2022/08/07 02:02:43;;;;;;;8.63;5.00;;;;;;;11.83;100.00;102583.75;5202731;28;20112;-73
2022/08/07 02:05:22;;;;;;;8.73;5.25;;;;;;;11.90;100.00;102574.19;5194933;28;20021;-72
2022/08/07 02:07:57;;;;;;;8.93;5.05;;;;;;;12.00;100.00;102575.09;5202471;28;20025;-73
2022/08/07 02:10:29;;;;;;;10.63;6.82;;;;;;;12.03;100.00;102574.81;5201762;28;20478;-73
2022/08/07 02:13:03;;;;;;;12.38;5.30;;;;;;;12.04;100.00;102573.81;5203990;28;20156;-73
2022/08/07 02:15:36;;;;;;;10.93;5.95;;;;;;;12.09;100.00;102574.25;5190486;28;20518;-73
2022/08/07 02:18:11;;;;;;;8.32;5.05;;;;;;;12.12;100.00;102574.00;5203795;28;20398;-74
2022/08/07 02:20:43;;;;;;;8.77;4.97;;;;;;;12.15;100.00;102568.38;5203929;28;20022;-74
2022/08/07 02:23:15;;;;;;;10.13;6.32;;;;;;;12.15;100.00;102562.97;5202516;28;20040;-73
2022/08/07 02:25:47;;;;;;;11.35;6.05;;;;;;;12.11;100.00;102564.22;5189589;28;20104;-73
2022/08/07 02:28:19;;;;;;;14.75;6.80;;;;;;;12.05;100.00;102569.28;5198286;28;20655;-73
2022/08/07 02:30:51;;;;;;;11.57;5.95;;;;;;;11.98;100.00;102563.59;5200768;28;20033;-72
2022/08/07 02:33:24;;;;;;;12.95;6.45;;;;;;;11.97;100.00;102564.59;5202542;28;20083;-72
2022/08/07 02:35:56;;;;;;;10.23;7.32;;;;;;;11.95;100.00;102561.19;5202446;28;20028;-72
2022/08/07 02:38:31;;;;;;;10.68;6.93;;;;;;;11.89;100.00;102559.00;5203003;28;20113;-73
2022/08/07 02:41:02;;;;;;;9.20;6.43;;;;;;;11.83;100.00;102554.16;5203305;28;20032;-73
2022/08/07 02:43:37;;;;;;;13.52;6.82;;;;;;;11.79;100.00;102561.59;5202740;28;20475;-73
2022/08/07 02:46:10;;;;;;;17.55;7.13;;;;;;;11.72;100.00;102559.59;5201999;28;20029;-72
2022/08/07 02:48:40;;;;;;;13.50;5.80;;;;;;;11.60;100.00;102553.44;5204695;28;20033;-72
2022/08/07 02:51:15;;;;;;;13.50;6.53;;;;;;;11.47;100.00;102556.31;5191001;28;20384;-72
2022/08/07 02:53:53;;;;;;;10.52;6.82;;;;;;;11.35;100.00;102547.47;5203038;28;20018;-72
2022/08/07 02:56:26;;;;;;;13.40;6.88;;;;;;;11.25;100.00;102557.28;5202664;28;20033;-73
2022/08/07 02:59:01;;;;;;;12.88;6.95;;;;;;;11.13;100.00;102551.09;5202729;28;20045;-72
2022/08/07 03:01:32;;;;;;;12.38;7.43;;;;;;;11.04;100.00;102548.31;5202836;28;20031;-73
2022/08/07 03:04:05;;;;;;;12.27;6.93;;;;;;;10.96;100.00;102548.97;5189983;28;20056;-73
2022/08/07 03:06:36;;;;;;;12.30;7.68;;;;;;;10.91;100.00;102545.81;5202608;28;20086;-73
2022/08/07 03:09:07;;;;;;;12.52;7.15;;;;;;;10.84;100.00;102541.91;5202722;28;20466;-72
2022/08/07 03:11:39;;;;;;;15.82;7.32;;;;;;;10.81;100.00;102542.19;5202646;28;20030;-72
2022/08/07 03:14:11;;;;;;;15.27;7.13;;;;;;;10.73;100.00;102542.81;5201677;28;20055;-71
2022/08/07 03:16:42;;;;;;;14.45;8.43;;;;;;;10.62;100.00;102549.06;5194509;28;20025;-72
2022/08/07 03:19:13;;;;;;;9.38;6.25;;;;;;;10.45;100.00;102556.78;5202268;28;20497;-71
2022/08/07 03:21:43;;;;;;;11.15;6.40;;;;;;;10.09;100.00;102556.91;5202459;28;20021;-72
2022/08/07 03:24:14;;;;;;;12.10;7.70;;;;;;;9.94;100.00;102555.44;5203434;28;20104;-71
2022/08/07 03:26:49;;;;;;;12.02;6.43;;;;;;;9.94;100.00;102557.22;5203234;28;20076;-72
2022/08/07 03:29:20;;;;;;;22.55;9.15;;;;;;;10.03;100.00;102554.69;5202287;28;20029;-71
2022/08/07 03:31:51;;;;;;;12.80;7.55;;;;;;;10.08;100.00;102565.88;5202059;28;20045;-71
2022/08/07 03:34:25;;;;;;;14.00;8.02;;;;;;;10.07;100.00;102564.19;5201910;28;20206;-71
2022/08/07 03:36:59;;;;;;;16.05;8.02;;;;;;;10.00;100.00;102554.09;5197994;28;20030;-72
2022/08/07 03:39:33;;;;;;;16.75;9.10;;;;;;;10.03;100.00;102554.69;5198552;28;20026;-72
2022/08/07 03:42:06;;;;;;;14.05;7.60;;;;;;;10.16;100.00;102557.25;5204793;28;20028;-71
2022/08/07 03:44:37;;;;;;;11.55;7.63;;;;;;;10.32;100.00;102555.06;5205824;28;20455;-71
2022/08/07 03:47:11;;;;;;;12.43;7.97;;;;;;;10.50;100.00;102559.97;5206022;28;20014;-72
2022/08/07 03:49:42;;;;;;;15.70;8.40;;;;;;;10.58;100.00;102552.97;5203492;28;20033;-71
2022/08/07 03:52:16;;;;;;;16.27;8.80;;;;;;;10.65;100.00;102564.06;5196837;28;20467;-71
2022/08/07 03:54:47;;;;;;;15.07;8.18;;;;;;;10.82;100.00;102565.38;5205839;28;20068;-72
2022/08/07 03:57:18;;;;;;;18.42;9.30;;;;;;;10.95;100.00;102566.06;5206312;28;20025;-71
2022/08/07 03:59:50;;;;;;;16.15;9.00;;;;;;;11.05;100.00;102568.84;5206125;28;20029;-71
2022/08/07 04:02:22;;;;;;;20.02;8.98;;;;;;;11.08;100.00;102579.31;5205323;28;20029;-71
2022/08/07 04:04:53;;;;;;;13.75;7.72;;;;;;;11.06;100.00;102584.84;5194200;28;20028;-71
2022/08/07 04:07:23;;;;;;;16.17;8.60;;;;;;;11.03;100.00;102578.84;5205757;28;20029;-71
2022/08/07 04:09:54;;;;;;;15.07;9.05;;;;;;;11.02;100.00;102567.25;5205820;28;20029;-71
2022/08/07 04:12:25;;;;;;;16.85;9.20;;;;;;;11.01;100.00;102570.94;5205661;28;20033;-73
2022/08/07 04:14:58;;;;;;;15.52;8.05;;;;;;;10.83;100.00;102567.91;5199026;28;20100;-73
2022/08/07 04:17:28;;;;;;;13.35;7.72;;;;;;;10.65;100.00;102557.84;5204600;28;20056;-73
2022/08/07 04:19:59;;;;;;;19.15;8.27;;;;;;;10.48;100.00;102554.69;5205570;28;20045;-71
2022/08/07 04:22:30;;;;;;;15.48;8.20;;;;;;;10.36;100.00;102558.38;5205555;28;20044;-72
2022/08/07 04:25:01;;;;;;;13.73;8.98;;;;;;;10.30;100.00;102562.41;5204623;28;20025;-73
2022/08/07 04:27:33;;;;;;;17.63;9.63;;;;;;;10.38;100.00;102562.63;5206029;28;20036;-75
2022/08/07 04:30:04;;;;;;;19.08;10.57;;;;;;;10.50;100.00;102560.81;5205284;28;20513;-71
2022/08/07 04:32:35;;;;;;;19.05;10.40;;;;;;;10.58;100.00;102571.75;5205695;28;20043;-72
2022/08/07 04:35:06;;;;;;;21.70;10.60;;;;;;;10.63;100.00;102566.88;5203958;28;20036;-72
2022/08/07 04:37:37;;;;;;;15.68;9.88;;;;;;;10.69;100.00;102575.41;5205827;28;20048;-72
2022/08/07 04:40:08;;;;;;;17.95;9.85;;;;;;;10.77;100.00;102575.63;5199937;28;20030;-73
2022/08/07 04:42:39;;;;;;;23.33;11.82;;;;;;;10.83;100.00;102580.50;5197819;28;20029;-72
2022/08/07 04:45:10;;;;;;;19.35;10.45;;;;;;;10.91;100.00;102585.25;5204894;28;20257;-73
2022/08/07 04:48:07;;;;;;;16.55;9.38;;;;;;;11.03;100.00;102585.06;5202835;28;20117;-72
2022/08/07 04:50:47;;;;;;;21.45;10.30;;;;;;;11.17;100.00;102583.09;5194275;28;20030;-72
2022/08/07 04:53:48;;;;;;;16.42;10.05;;;;;;;11.25;100.00;102583.31;5204727;28;20048;-72
2022/08/07 04:56:39;;;;;;;25.00;11.30;;;;;;;11.30;100.00;102578.41;5205083;28;20022;-73
2022/08/07 04:59:17;;;;;;;14.07;8.80;;;;;;;11.35;100.00;102585.09;5204618;28;20030;-72
2022/08/07 05:01:57;;;;;;;23.95;11.88;;;;;;;11.43;100.00;102583.56;5205251;28;20029;-72
2022/08/07 05:04:59;;;;;;;19.50;11.40;;;;;;;11.48;100.00;102592.09;5192647;28;20063;-73
2022/08/07 05:08:06;;;;;;;17.20;10.10;;;;;;;11.55;100.00;102593.31;5204616;28;20029;-72
2022/08/07 05:10:44;;;;;;;19.50;10.68;;;;;;;11.62;100.00;102592.63;5204834;28;20026;-74
2022/08/07 05:13:29;;;;;;;20.80;11.60;;;;;;;11.70;100.00;102594.69;5204919;28;20035;-73
2022/08/07 05:16:03;;;;;;;19.92;10.68;;;;;;;11.75;100.00;102591.63;5196608;28;20021;-73
2022/08/07 05:18:43;;;;;;;21.38;11.52;;;;;;;11.82;100.00;102590.13;5204637;28;20033;-72
2022/08/07 05:21:17;;;;;;;18.92;10.80;;;;;;;11.90;100.00;102595.69;5204640;28;20025;-72
2022/08/07 05:23:54;;;;;;;22.60;11.55;;;;;;;11.98;100.00;102593.19;5204558;28;20109;-72
2022/08/07 05:26:26;;;;;;;20.75;11.18;;;;;;;12.05;100.00;102589.00;5191486;28;20430;-72
2022/08/07 05:29:00;;;;;;;17.02;10.38;;;;;;;12.14;100.00;102596.22;5204145;28;20029;-73
2022/08/07 05:31:33;;;;;;;20.33;10.90;;;;;;;12.23;100.00;102609.88;5204394;28;20036;-71
2022/08/07 05:34:08;;;;;;;23.58;10.73;;;;;;;12.30;100.00;102602.97;5204116;28;20028;-72
2022/08/07 05:36:42;;;;;;;21.95;10.65;;;;;;;12.39;100.00;102599.47;5202931;28;20030;-71
2022/08/07 05:39:14;;;;;;;17.70;10.25;;;;;;;12.48;100.00;102600.50;5204184;28;20034;-71
2022/08/07 05:41:47;;;;;;;18.27;10.25;;;;;;;12.58;100.00;102610.31;5203971;28;20403;-71
2022/08/07 05:44:19;;;;;;;20.02;10.00;;;;;;;12.70;100.00;102605.66;5203649;28;20534;-71
2022/08/07 05:46:50;;;;;;;21.58;10.00;;;;;;;12.81;100.00;102612.81;5204246;28;20037;-71
2022/08/07 05:49:21;;;;;;;18.98;10.15;;;;;;;12.93;100.00;102617.06;5200679;28;20083;-70
2022/08/07 05:51:52;;;;;;;16.50;9.60;;;;;;;13.05;100.00;102621.34;5203993;28;20036;-71
2022/08/07 05:54:23;;;;;;;19.65;9.70;;;;;;;13.19;100.00;102620.94;5203267;28;20018;-71
2022/08/07 05:56:54;;;;;;;13.20;9.15;;;;;;;13.36;100.00;102615.88;5204118;28;20083;-71
2022/08/07 05:59:26;;;;;;;16.35;9.63;;;;;;;13.61;100.00;102611.75;5203586;28;20079;-71
2022/08/07 06:01:57;;;;;;;14.95;10.25;;;;;;;14.11;100.00;102600.72;5203583;28;20083;-71
2022/08/07 06:04:28;;;;;;;15.88;9.35;;;;;;;15.03;100.00;102611.53;5186597;28;20079;-71
2022/08/07 06:07:04;;;;;;;13.57;7.45;;;;;;;16.04;100.00;102607.50;5194540;28;20309;-71
2022/08/07 06:09:35;;;;;;;15.73;7.13;;;;;;;17.21;100.00;102614.09;5200756;28;20439;-71
2022/08/07 06:12:06;;;;;;;12.40;7.68;;;;;;;17.99;100.00;102610.91;5200025;28;20495;-71
2022/08/07 06:14:37;;;;;;;9.73;6.78;;;;;;;18.73;100.00;102609.69;5200203;28;20021;-71
2022/08/07 06:17:08;;;;;;;11.75;6.32;;;;;;;19.20;100.00;102608.72;5199242;28;20032;-71
2022/08/07 06:19:39;;;;;;;9.48;5.60;;;;;;;19.67;100.00;102610.41;5200465;28;20063;-72
2022/08/07 06:22:10;;;;;;;8.70;5.85;;;;;;;20.07;100.00;102605.59;5199277;28;20060;-72
2022/08/07 06:24:41;;;;;;;11.43;5.78;;;;;;;20.43;100.00;102611.13;5199789;28;20108;-72
2022/08/07 06:27:28;;;;;;;11.85;6.35;;;;;;;20.73;100.00;102613.88;5194771;28;20124;-72
2022/08/07 06:29:59;;;;;;;7.25;4.90;;;;;;;21.29;100.00;102625.03;5195146;28;20483;-72
2022/08/07 06:32:30;;;;;;;8.02;5.32;;;;;;;21.45;100.00;102619.31;5200824;28;20029;-72
2022/08/07 06:35:00;;;;;;;7.95;4.50;;;;;;;21.71;100.00;102613.25;5199591;28;20153;-72
2022/08/07 06:37:31;;;;;;;9.85;5.20;;;;;;;21.83;100.00;102619.84;5200522;28;20108;-72
2022/08/07 06:40:02;;;;;;;6.03;4.93;;;;;;;22.09;100.00;102607.41;5200130;28;20502;-72
2022/08/07 06:42:36;;;;;;;7.72;4.63;;;;;;;22.21;100.00;102605.88;5199002;28;20483;-72
2022/08/07 06:45:12;;;;;;;5.28;4.53;;;;;;;23.05;97.07;102605.63;5200220;28;20036;-72
2022/08/07 06:47:43;;;;;;;8.57;4.38;;;;;;;22.62;96.07;102603.13;5199478;28;20113;-72
2022/08/07 06:50:13;;;;;;;6.65;4.40;;;;;;;22.48;100.00;102604.09;5193731;28;20101;-72
2022/08/07 06:52:50;;;;;;;7.97;4.95;;;;;;;22.63;100.00;102601.22;5195169;28;20022;-72
2022/08/07 06:55:23;;;;;;;5.80;4.10;;;;;;;22.86;96.16;102598.16;5189495;28;20072;-72
2022/08/07 06:58:01;;;;;;;7.95;4.43;;;;;;;23.10;93.52;102599.53;5201134;28;20033;-72
2022/08/07 07:00:35;;;;;;;6.50;4.07;;;;;;;23.30;94.80;102594.09;5202039;28;20025;-72
2022/08/07 07:03:08;;;;;;;6.63;4.10;;;;;;;23.45;87.53;102597.47;5201826;28;20026;-72
2022/08/07 07:05:39;;;;;;;5.35;3.80;;;;;;;23.66;86.76;102604.69;5201446;28;20035;-72
2022/08/07 07:08:11;;;;;;;6.45;4.05;;;;;;;24.04;85.67;102600.19;5201432;28;20037;-72
2022/08/07 07:10:42;;;;;;;5.70;4.10;;;;;;;24.52;82.21;102597.16;5197104;28;20379;-72
2022/08/07 07:13:18;;;;;;;9.00;3.83;;;;;;;24.94;77.20;102592.06;5194638;28;20076;-72
2022/08/07 07:16:00;;;;;;;6.13;3.60;;;;;;;25.23;77.09;102592.56;5198206;28;20071;-70
2022/08/07 07:18:38;;;;;;;7.88;3.83;;;;;;;26.38;63.63;102592.16;5205886;28;20026;-70
2022/08/07 07:21:15;;;;;;;5.75;3.80;;;;;;;25.78;64.13;102590.03;5205931;28;20129;-70
2022/08/07 07:23:47;;;;;;;5.75;4.30;;;;;;;25.11;68.88;102589.72;5205693;28;20029;-70
2022/08/07 07:26:20;;;;;;;5.97;4.10;;;;;;;24.59;72.81;102591.63;5205612;28;20048;-70
2022/08/07 07:29:23;;;;;;;6.55;3.80;;;;;;;24.71;74.26;102587.16;5205593;28;20018;-70
2022/08/07 07:31:55;;;;;;;4.72;3.78;;;;;;;25.41;67.94;102591.81;5205957;28;20041;-70
2022/08/07 07:34:28;;;;;;;7.47;3.60;;;;;;;25.51;68.29;102592.16;5204875;28;20083;-72
2022/08/07 07:37:02;;;;;;;7.65;3.95;;;;;;;25.34;69.33;102600.09;5205806;28;20025;-72
2022/08/07 07:39:36;;;;;;;7.97;3.77;;;;;;;25.82;67.50;102597.63;5204940;28;20026;-73
2022/08/07 07:42:09;;;;;;;7.03;3.47;;;;;;;26.99;59.00;102599.44;5205542;28;20017;-70
2022/08/07 07:44:44;;;;;;;4.68;3.85;;;;;;;26.37;64.42;102598.75;5204689;28;20056;-70
2022/08/07 07:47:16;;;;;;;6.20;3.92;;;;;;;25.75;65.39;102596.81;5205596;28;20537;-70
2022/08/07 07:49:48;;;;;;;5.32;3.70;;;;;;;25.67;65.68;102590.75;5202748;28;20026;-72
2022/08/07 07:52:21;;;;;;;5.55;3.42;;;;;;;25.83;64.63;102595.69;5204974;28;20495;-72
2022/08/07 07:54:54;;;;;;;5.63;3.83;;;;;;;26.15;64.01;102592.84;5204415;28;20021;-72
2022/08/07 07:57:25;;;;;;;7.20;3.60;;;;;;;26.69;62.06;102578.22;5205446;28;20101;-72
2022/08/07 07:59:57;;;;;;;6.38;3.72;;;;;;;26.62;61.84;102576.66;5205165;28;20060;-72
2022/08/07 08:02:29;;;;;;;7.97;3.65;;;;;;;26.56;62.91;102575.69;5203178;28;20129;-72
2022/08/07 08:05:04;;;;;;;5.43;3.83;;;;;;;26.99;60.88;102575.47;5194501;28;20022;-73
2022/08/07 08:07:36;;;;;;;5.50;3.47;;;;;;;26.94;60.47;102583.59;5205105;28;20029;-72
2022/08/07 08:10:08;;;;;;;8.40;3.85;;;;;;;26.45;58.76;102576.44;5204889;28;20041;-72
2022/08/07 08:12:40;;;;;;;4.97;3.10;;;;;;;26.33;57.91;102584.59;5205173;28;20033;-72
2022/08/07 08:15:10;;;;;;;6.10;3.72;;;;;;;26.63;58.54;102581.09;5196308;28;20033;-72
2022/08/07 08:17:43;;;;;;;4.13;3.28;;;;;;;26.58;57.99;102571.59;5205396;28;20021;-72
2022/08/07 08:20:16;;;;;;;3.85;2.80;;;;;;;27.01;58.38;102572.47;5204948;28;20049;-73
2022/08/07 08:28:30;;;;;;;7.22;3.60;;;;;;;27.63;57.49;102578.53;5200139;28;20100;-73
2022/08/07 08:31:02;;;;;;;5.50;3.53;;;;;;;27.99;54.06;102571.94;5204633;28;20333;-70
2022/08/07 08:33:35;;;;;;;5.70;2.95;;;;;;;28.17;52.44;102576.50;5204331;28;20021;-70
2022/08/07 08:36:09;;;;;;;4.47;2.85;;;;;;;28.02;53.82;102568.72;5203557;28;20280;-70
2022/08/07 08:38:42;;;;;;;5.22;3.10;;;;;;;28.21;52.01;102571.31;5202582;28;20033;-70
2022/08/07 08:41:46;;;;;;;7.15;2.83;;;;;;;27.89;51.17;102568.97;5204267;28;20100;-70
2022/08/07 08:44:32;;;;;;;7.18;3.30;;;;;;;27.78;52.07;102570.66;5202341;28;20031;-70
2022/08/07 08:47:11;;;;;;;7.72;3.33;;;;;;;27.80;53.18;102575.91;5204604;28;20021;-70
2022/08/07 08:50:07;;;;;;;6.35;3.53;;;;;;;27.76;51.32;102563.69;5199492;28;20368;-70
2022/08/07 08:53:02;;;;;;;7.20;2.70;;;;;;;28.44;49.28;102564.94;5198759;28;20021;-70
2022/08/07 08:55:39;;;;;;;5.32;3.10;;;;;;;28.37;50.58;102562.31;5191572;28;20026;-70
2022/08/07 08:58:46;;;;;;;7.97;2.88;;;;;;;28.38;48.92;102564.00;5189808;28;20108;-70
2022/08/07 09:01:39;;;;;;;6.95;3.40;;;;;;;28.04;50.21;102563.78;5191143;28;20411;-70
2022/08/07 09:04:45;;;;;;;6.70;3.70;;;;;;;28.14;51.07;102558.47;5190870;28;20030;-73
2022/08/07 09:07:25;;;;;;;;;;;;;;;28.61;49.08;102554.78;5203999;28;20049;-72
2022/08/07 09:10:06;;;;;;;4.60;2.63;;;;;;;28.75;49.19;102558.09;5203802;28;19912;-73
2022/08/07 09:12:55;;;;;;;5.47;3.00;;;;;;;29.06;45.98;102554.00;5204053;28;20491;-73
2022/08/07 09:15:43;;;;;;;5.22;3.30;;;;;;;28.58;47.61;102561.63;5195269;28;20032;-72
2022/08/07 09:18:41;;;;;;;8.63;3.55;;;;;;;27.75;51.02;102564.75;5204223;28;20029;-72
2022/08/07 09:21:30;;;;;;;4.85;2.60;;;;;;;28.39;48.46;102562.91;5203752;28;20021;-71
2022/08/07 09:24:23;;;;;;;5.90;3.08;;;;;;;28.28;46.05;102561.81;5202948;28;20091;-73
2022/08/07 09:27:28;;;;;;;5.10;2.78;;;;;;;27.65;48.12;102567.25;5203825;28;20029;-73
2022/08/07 09:30:05;;;;;;;6.38;2.95;;;;;;;27.72;48.09;102554.22;5203523;28;20104;-72
2022/08/07 09:32:59;;;;;;;4.03;2.47;;;;;;;27.69;50.37;102557.41;5204031;28;20491;-70
2022/08/07 09:36:07;;;;;;;6.55;3.40;;;;;;;28.16;47.92;102552.72;5189484;28;20037;-71
2022/08/07 09:38:57;;;;;;;7.40;2.97;;;;;;;28.35;46.33;102550.66;5202743;28;20038;-70
2022/08/07 09:42:05;;;;;;;5.93;3.33;;;;;;;27.84;47.05;102541.25;5203262;28;20064;-71
2022/08/07 09:44:55;;;;;;;3.67;2.80;;;;;;;27.02;48.16;102539.22;5202022;28;20029;-71
2022/08/07 09:47:50;;;;;;;5.95;3.33;;;;;;;26.83;47.71;102537.59;5201553;28;20086;-70
2022/08/07 09:50:35;;;;;;;4.37;2.93;;;;;;;26.60;48.38;102532.81;5192500;28;20049;-72
2022/08/07 09:53:09;;;;;;;7.97;3.50;;;;;;;26.40;51.04;102532.22;5202938;28;20025;-72
2022/08/07 09:56:07;;;;;;;5.82;2.80;;;;;;;26.66;52.16;102531.06;5202421;28;20037;-72
2022/08/07 09:59:03;;;;;;;5.38;2.60;;;;;;;27.29;50.17;102530.56;5203368;28;20041;-72
2022/08/07 10:01:33;;;;;;;5.95;2.70;;;;;;;27.72;49.45;102524.75;5202869;28;20064;-72
2022/08/07 10:04:16;;;;;;;7.78;3.30;;;;;;;27.84;49.20;102524.72;5190475;28;20080;-73
2022/08/07 10:07:04;;;;;;;6.53;2.92;;;;;;;28.28;48.76;102514.91;5202594;28;20055;-72
2022/08/07 10:09:45;;;;;;;4.07;2.95;;;;;;;28.41;46.70;102513.81;5189924;28;20083;-73
2022/08/07 10:12:44;;;;;;;4.45;3.15;;;;;;;28.35;45.15;102512.88;5202965;28;20097;-73
2022/08/07 10:15:23;;;;;;;3.83;2.50;;;;;;;28.00;46.07;102512.09;5189491;28;20484;-72
2022/08/07 10:18:09;;;;;;;6.68;3.25;;;;;;;27.18;45.17;102510.19;5203195;28;20026;-71
2022/08/07 10:21:10;;;;;;;6.82;3.13;;;;;;;26.46;46.41;102510.19;5189166;28;20345;-70
2022/08/07 10:24:09;;;;;;;5.45;3.08;;;;;;;26.08;50.06;102505.75;5202851;28;20035;-70
2022/08/07 10:27:14;;;;;;;3.83;2.53;;;;;;;26.66;49.52;102498.03;5202282;28;20048;-70
2022/08/07 10:30:07;;;;;;;3.88;2.28;;;;;;;26.98;49.19;102491.19;5202263;28;20033;-70
2022/08/07 10:33:13;;;;;;;6.30;2.92;;;;;;;27.38;45.71;102493.31;5201568;28;20499;-70
2022/08/07 10:36:14;;;;;;;8.15;2.80;;;;;;;26.74;48.50;102489.44;5201559;28;20033;-70
2022/08/07 10:39:18;;;;;;;6.30;3.00;;;;;;;26.55;45.90;102485.91;5189696;28;20033;-70
2022/08/07 10:41:56;;;;;;;5.95;2.88;;;;;;;26.15;47.08;102480.06;5202342;28;20029;-70
2022/08/07 10:44:51;;;;;;;5.93;2.58;;;;;;;26.23;46.62;102482.50;5200272;28;20431;-70
2022/08/07 10:47:44;;;;;;;4.63;2.50;;;;;;;26.12;47.87;102480.53;5193251;28;20080;-70
2022/08/07 10:50:41;;;;;;;5.53;3.10;;;;;;;25.87;47.51;102477.88;5185189;28;20014;-70
2022/08/07 10:53:30;;;;;;;6.32;2.35;;;;;;;26.20;49.48;102467.28;5202724;28;20017;-70
2022/08/07 10:56:09;;;;;;;3.20;2.30;;;;;;;26.66;47.13;102459.50;5202404;28;20025;-71
2022/08/07 10:58:59;;;;;;;5.35;2.17;;;;;;;27.16;47.28;102470.16;5203095;28;20044;-70
2022/08/07 11:01:52;;;;;;;5.80;3.00;;;;;;;27.51;44.61;102462.75;5203145;28;20076;-70
2022/08/07 11:04:38;;;;;;;5.60;2.20;;;;;;;27.79;45.12;102458.44;5190021;28;20120;-71
2022/08/07 11:07:38;;;;;;;4.00;2.33;;;;;;;27.61;44.14;102462.13;5202649;28;20030;-70
2022/08/07 11:10:18;;;;;;;2.80;2.30;;;;;;;27.01;45.34;102462.31;5202155;28;20087;-70
2022/08/07 11:12:58;;;;;;;4.13;2.45;;;;;;;27.02;45.34;102453.00;5202756;28;20074;-71
2022/08/07 11:15:34;;;;;;;6.45;2.40;;;;;;;26.66;46.54;102453.97;5194744;28;20026;-70
2022/08/07 11:18:15;;;;;;;3.58;2.30;;;;;;;26.92;45.41;102447.25;5202648;28;20071;-70
2022/08/07 11:20:57;;;;;;;3.58;2.50;;;;;;;26.69;45.87;102440.59;5202424;28;20429;-70
2022/08/07 11:23:41;;;;;;;4.45;2.13;;;;;;;26.95;46.48;102436.56;5202383;28;20045;-70
2022/08/07 11:26:19;;;;;;;3.40;2.17;;;;;;;27.32;46.19;102434.47;5202516;28;20298;-71
2022/08/07 11:29:13;;;;;;;7.72;2.30;;;;;;;27.73;45.75;102440.09;5202259;28;20056;-70
2022/08/07 11:32:15;;;;;;;3.83;2.30;;;;;;;27.85;44.21;102430.69;5189654;28;20028;-71
2022/08/07 11:34:52;;;;;;;4.30;2.67;;;;;;;27.65;41.70;102435.75;5201647;28;20059;-70
2022/08/07 11:37:41;;;;;;;3.65;2.40;;;;;;;27.09;42.87;102432.56;5202046;28;20057;-70
2022/08/07 11:40:30;;;;;;;4.78;2.13;;;;;;;27.22;45.61;102422.38;5202477;28;20100;-70
2022/08/07 11:43:20;;;;;;;4.00;2.30;;;;;;;27.61;45.26;102423.53;5202502;28;20029;-71
2022/08/07 11:46:13;;;;;;;4.93;2.10;;;;;;;28.03;43.67;102420.59;5201928;28;20460;-71
2022/08/07 11:48:55;;;;;;;3.13;2.10;;;;;;;28.19;42.13;102416.22;5202454;28;20112;-71
2022/08/07 11:51:38;;;;;;;2.95;1.98;;;;;;;28.25;42.03;102417.97;5192199;28;20044;-71
2022/08/07 11:54:44;;;;;;;5.45;2.10;;;;;;;28.11;42.26;102411.91;5200732;28;20121;-71
2022/08/07 11:57:33;;;;;;;3.38;2.00;;;;;;;27.88;43.15;102410.91;5202775;28;20029;-71
2022/08/07 12:00:24;;;;;;;4.53;2.17;;;;;;;27.67;43.23;102403.28;5193952;28;20021;-71
2022/08/07 12:03:06;;;;;;;2.20;1.83;;;;;;;27.84;43.16;102408.91;5200434;28;20084;-71
2022/08/07 12:06:12;;;;;;;5.10;2.28;;;;;;;27.96;42.40;102406.94;5199669;28;20512;-71
2022/08/07 12:08:46;;;;;;;;;;;;;;;27.78;40.95;102409.88;5206199;28;20029;-71
2022/08/07 12:11:17;;;;;;;4.88;2.20;;;;;;;27.21;41.25;102404.16;5206204;28;19908;-71